To NAV CANADA Home Page Login to a new session Search on AWWS site Disclaimer Vers la page française équivalente Tips FAQ What's new on the site To the Forecasts and Observations / NOTAM section To "File a Flight Plan" website Publications and other links Update of the User's profile FIC Telephone Numbers My Weather Data Folder Route Weather Data Regional Weather Data Local Weather Data To the Forecasts and Observations / NOTAM section
Request Generated 12/04/2022 at 06:22:49 UTC . Weather information available at that time is displayed.

METAR/TAF

If you find any discrepancies between the coded METAR/TAF and the plain language METAR/TAF please use the coded METAR/TAF. LWIS bulletins are not decoded in plain language.

CALGARY/YYC CALGARY INTL/AB    

METAR CYYC 040600Z 22012KT 15SM SKC M07/M15 A2991 RMK SLP192=
METAR
LOCATION
CYYC - CALGARY/YYC CALGARY INTL/AB
DATE - TIME
04 DECEMBER 2022 - 0600 UTC
WIND
220 TRUE @ 12  KNOTS
VISIBILITY
15 STAT.  MILES
RUNWAY VISUAL RANGE
WEATHER
CLOUDINESS
CLEAR SKY
TEMP / DEWPOINT
-7 C / -15 C
ALTIMETER
29.91 IN HG
RECENT WEATHER
WIND SHEAR

METAR CYYC 040500Z 23007KT 15SM SKC M08/M16 A2994 RMK SLP205=
METAR
LOCATION
CYYC - CALGARY/YYC CALGARY INTL/AB
DATE - TIME
04 DECEMBER 2022 - 0500 UTC
WIND
230 TRUE @ 7  KNOTS
VISIBILITY
15 STAT.  MILES
RUNWAY VISUAL RANGE
WEATHER
CLOUDINESS
CLEAR SKY
TEMP / DEWPOINT
-8 C / -16 C
ALTIMETER
29.94 IN HG
RECENT WEATHER
WIND SHEAR

METAR CYYC 040400Z 19007KT 15SM SKC M13/M18 A2996 RMK CONTRAILS SLP219=
METAR
LOCATION
CYYC - CALGARY/YYC CALGARY INTL/AB
DATE - TIME
04 DECEMBER 2022 - 0400 UTC
WIND
190 TRUE @ 7  KNOTS
VISIBILITY
15 STAT.  MILES
RUNWAY VISUAL RANGE
WEATHER
CLOUDINESS
CLEAR SKY
TEMP / DEWPOINT
-13 C / -18 C
ALTIMETER
29.96 IN HG
RECENT WEATHER
WIND SHEAR

Your time UTC time
Weather data provided by Environment Canada and NAV CANADA